Altona, Illinois
Current Conditions -  °F | °C
As of 11:15 PM on Sunday 21 Dec 2014 (Local Time) from KGBG Reporting Station
Overcast Overcast  
Wind Chill: 28°   Ceiling: 5000
Heat Index: 35°   Visibility: 10mi
Dew Point: 32°   Wind: 8mph
Humidity: 89%   Direction: 130°SE
Pressure: 29.92"   Gusts: NA
Location:  41.11°N, 90.16°W
Report Text: KGBG 220515Z AUTO 13007KT 10SM SCT039 SCT044 OVC050 02/00 A2992 RMK AO2 T00160000
Loading
Personal Weather Stations






























Interactive Weather Map New forecast layout! Learn more

10-Day Weather Forecast

Advertisements
Track Severe Weather on mobile